TimeEEST,TemperatureF,Dew PointF,Humidity,Sea Level PressureIn,VisibilityMPH,Wind Direction,Wind SpeedMPH,Gust SpeedMPH,PrecipitationIn,Events,Conditions,WindDirDegrees,DateUTC
12:20 AM,62.6,53.6,72,30.09,6.2,NE,13.8,-,N/A,,Scattered Clouds,40,2012-05-09 21:20:00
12:50 AM,62.6,53.6,72,30.09,6.2,NE,12.7,-,N/A,,Scattered Clouds,50,2012-05-09 21:50:00
1:20 AM,62.6,53.6,72,30.09,6.2,ENE,10.4,-,N/A,,Scattered Clouds,60,2012-05-09 22:20:00
1:50 AM,62.6,53.6,72,30.09,6.2,NE,13.8,-,N/A,,Scattered Clouds,50,2012-05-09 22:50:00
2:20 AM,62.6,53.6,72,30.09,6.2,NE,10.4,-,N/A,,Scattered Clouds,50,2012-05-09 23:20:00
2:50 AM,62.6,53.6,72,30.09,6.2,NE,10.4,-,N/A,,Scattered Clouds,40,2012-05-09 23:50:00
3:00 AM,62,53,66,30.11,6,NE,10.4,,,,Mostly Cloudy,40,2012-05-10 00:00:00
3:20 AM,62.6,53.6,72,30.09,6.2,NE,11.5,-,N/A,,Scattered Clouds,40,2012-05-10 00:20:00
3:50 AM,62.6,53.6,72,30.09,6.2,NE,11.5,-,N/A,,Scattered Clouds,40,2012-05-10 00:50:00
4:50 AM,62.6,53.6,72,30.09,6.2,NE,10.4,-,N/A,,Scattered Clouds,50,2012-05-10 01:50:00
5:20 AM,62.6,53.6,72,30.12,6.2,ENE,10.4,-,N/A,,Scattered Clouds,60,2012-05-10 02:20:00
5:50 AM,62.6,51.8,68,30.12,6.2,NE,9.2,-,N/A,,Scattered Clouds,50,2012-05-10 02:50:00
6:20 AM,62.6,51.8,68,30.12,6.2,NE,10.4,-,N/A,,Scattered Clouds,50,2012-05-10 03:20:00
7:20 AM,62.6,51.8,68,30.12,6.2,NE,12.7,-,N/A,,Mostly Cloudy,40,2012-05-10 04:20:00
7:50 AM,64.4,53.6,68,30.12,6.2,NE,11.5,-,N/A,,Mostly Cloudy,40,2012-05-10 04:50:00
8:20 AM,64.4,53.6,68,30.09,6.2,NNE,11.5,-,N/A,,Mostly Cloudy,30,2012-05-10 05:20:00
8:50 AM,64.4,53.6,68,30.12,6.2,NE,10.4,-,N/A,,Mostly Cloudy,50,2012-05-10 05:50:00
9:00 AM,65,54,59,30.13,6,NE,10.4,,,,Mostly Cloudy,40,2012-05-10 06:00:00
9:20 AM,66.2,53.6,64,30.12,6.2,NE,10.4,-,N/A,,Mostly Cloudy,40,2012-05-10 06:20:00
9:50 AM,64.4,53.6,68,30.12,6.2,NE,12.7,-,N/A,,Mostly Cloudy,40,2012-05-10 06:50:00
10:20 AM,64.4,53.6,68,30.12,6.2,NE,11.5,-,N/A,,Mostly Cloudy,40,2012-05-10 07:20:00
10:50 AM,62.6,55.4,77,30.15,6.2,NNE,13.8,-,N/A,,Mostly Cloudy,20,2012-05-10 07:50:00
11:20 AM,62.6,55.4,77,30.15,6.2,NNE,13.8,-,N/A,,Mostly Cloudy,20,2012-05-10 08:20:00
11:50 AM,62.6,55.4,77,30.15,6.2,NNE,15.0,-,N/A,,Mostly Cloudy,20,2012-05-10 08:50:00
12:20 PM,64.4,57.2,77,30.15,6.2,NNE,11.5,-,N/A,,Mostly Cloudy,20,2012-05-10 09:20:00
12:50 PM,64.4,55.4,73,30.15,6.2,NNE,11.5,-,N/A,,Mostly Cloudy,20,2012-05-10 09:50:00
1:20 PM,64.4,57.2,77,30.15,6.2,NNE,10.4,-,N/A,,Mostly Cloudy,30,2012-05-10 10:20:00
1:50 PM,66.2,57.2,73,30.12,5.6,North,12.7,-,N/A,,Mostly Cloudy,10,2012-05-10 10:50:00
2:20 PM,68.0,55.4,64,30.12,6.2,NNE,10.4,-,N/A,,Mostly Cloudy,20,2012-05-10 11:20:00
2:50 PM,68.0,55.4,64,30.12,6.2,NE,9.2,-,N/A,,Mostly Cloudy,50,2012-05-10 11:50:00
3:00 PM,68,55,53,30.14,6,NE,9.2,,,,Partly Cloudy,50,2012-05-10 12:00:00
3:20 PM,68.0,55.4,64,30.12,6.2,NNE,9.2,-,N/A,,Mostly Cloudy,30,2012-05-10 12:20:00
3:50 PM,68.0,55.4,64,30.12,6.2,North,9.2,-,N/A,,Mostly Cloudy,10,2012-05-10 12:50:00
4:20 PM,68.0,53.6,60,30.09,6.2,NE,9.2,-,N/A,,Mostly Cloudy,40,2012-05-10 13:20:00
4:50 PM,68.0,55.4,64,30.09,6.2,NNE,10.4,-,N/A,,Mostly Cloudy,20,2012-05-10 13:50:00
5:20 PM,71.6,53.6,53,30.09,6.2,ENE,10.4,-,N/A,,Mostly Cloudy,70,2012-05-10 14:20:00
5:50 PM,69.8,53.6,56,30.09,6.2,ENE,10.4,-,N/A,,Mostly Cloudy,70,2012-05-10 14:50:00
6:20 PM,68.0,53.6,60,30.09,6.2,NE,9.2,-,N/A,,Mostly Cloudy,40,2012-05-10 15:20:00
6:50 PM,68.0,53.6,60,30.06,6.2,NE,11.5,-,N/A,,Mostly Cloudy,40,2012-05-10 15:50:00
7:20 PM,66.2,53.6,64,30.09,6.2,NE,9.2,-,N/A,,Mostly Cloudy,50,2012-05-10 16:20:00
7:50 PM,66.2,53.6,64,30.09,6.2,NE,9.2,-,N/A,,Mostly Cloudy,40,2012-05-10 16:50:00
8:20 PM,66.2,53.6,64,30.09,6.2,NNE,8.1,-,N/A,,Mostly Cloudy,30,2012-05-10 17:20:00
8:50 PM,66.2,55.4,68,30.12,6.2,Variable,6.9,-,N/A,,Mostly Cloudy,0,2012-05-10 17:50:00
9:00 PM,65,55,62,30.12,6,NE,6.9,,,,Partly Cloudy,40,2012-05-10 18:00:00
9:20 PM,64.4,55.4,73,30.12,6.2,NE,6.9,-,N/A,,Mostly Cloudy,50,2012-05-10 18:20:00
9:50 PM,64.4,57.2,77,30.12,6.2,Variable,6.9,-,N/A,,Mostly Cloudy,0,2012-05-10 18:50:00
10:20 PM,64.4,55.4,73,30.12,6.2,Variable,6.9,-,N/A,,Mostly Cloudy,0,2012-05-10 19:20:00
10:50 PM,64.4,55.4,73,30.12,6.2,Variable,5.8,-,N/A,,Mostly Cloudy,0,2012-05-10 19:50:00
11:20 PM,62.6,55.4,77,30.12,6.2,NNE,8.1,-,N/A,,Mostly Cloudy,20,2012-05-10 20:20:00
11:50 PM,62.6,53.6,72,30.12,6.2,NNE,11.5,-,N/A,,Mostly Cloudy,20,2012-05-10 20:50:00